createdAt,value
2019-02-16T00:00:56.761Z,22.16
2019-02-16T00:01:58.773Z,22.16
2019-02-16T00:03:00.291Z,22.15
2019-02-16T00:04:01.727Z,22.15
2019-02-16T00:05:04.299Z,22.15
2019-02-16T00:06:05.865Z,22.14
2019-02-16T00:07:07.509Z,22.14
2019-02-16T00:08:08.845Z,22.14
2019-02-16T00:09:10.416Z,22.15
2019-02-16T00:10:12.069Z,22.14
2019-02-16T00:11:13.398Z,22.13
2019-02-16T00:12:14.905Z,22.13
2019-02-16T00:13:16.245Z,22.13
2019-02-16T00:14:17.707Z,22.13
2019-02-16T00:15:19.143Z,22.12
2019-02-16T00:16:20.492Z,22.13
2019-02-16T00:17:21.945Z,22.13
2019-02-16T00:18:23.332Z,22.13
2019-02-16T00:19:24.824Z,22.13
2019-02-16T00:20:26.204Z,22.13
2019-02-16T00:21:27.737Z,22.13
2019-02-16T00:22:29.217Z,22.12
2019-02-16T00:23:30.628Z,22.13
2019-02-16T00:24:32.072Z,22.11
2019-02-16T00:25:33.582Z,22.11
2019-02-16T00:26:34.952Z,22.11
2019-02-16T00:27:36.384Z,22.11
2019-02-16T00:28:37.708Z,22.11
2019-02-16T00:29:39.180Z,22.11
2019-02-16T00:30:40.789Z,22.11
2019-02-16T00:31:42.180Z,22.11
2019-02-16T00:32:43.841Z,22.11
2019-02-16T00:33:45.121Z,22.10
2019-02-16T00:34:46.462Z,22.10
2019-02-16T00:35:48.153Z,22.10
2019-02-16T00:36:49.868Z,22.10
2019-02-16T00:37:51.468Z,22.10
2019-02-16T00:38:54.245Z,22.10
2019-02-16T00:39:55.742Z,22.10
2019-02-16T00:40:57.205Z,22.10
2019-02-16T00:42:00.639Z,22.09
2019-02-16T00:43:01.902Z,22.09
2019-02-16T00:44:03.252Z,22.09
2019-02-16T00:45:05.548Z,22.08
2019-02-16T00:46:07.047Z,22.08
2019-02-16T00:47:08.553Z,22.09
2019-02-16T00:48:09.919Z,22.09
2019-02-16T00:49:11.534Z,22.08
2019-02-16T00:50:13.004Z,22.08
2019-02-16T00:51:14.471Z,22.08
2019-02-16T00:52:16.001Z,22.08
2019-02-16T00:53:17.507Z,22.07
2019-02-16T00:54:18.955Z,22.07
2019-02-16T00:55:20.405Z,22.07
2019-02-16T00:56:23.045Z,22.08
2019-02-16T00:57:24.522Z,22.08
2019-02-16T00:58:25.844Z,22.08
2019-02-16T00:59:28.041Z,22.08
2019-02-16T01:00:30.481Z,22.08
2019-02-16T01:01:31.700Z,22.09
2019-02-16T01:02:33.110Z,22.08
2019-02-16T01:03:34.690Z,22.08
2019-02-16T01:04:36.151Z,22.09
2019-02-16T01:05:37.639Z,22.09
2019-02-16T01:06:38.948Z,22.08
2019-02-16T01:07:40.336Z,22.08
2019-02-16T01:08:42.051Z,22.08
2019-02-16T01:09:45.512Z,22.08
2019-02-16T01:10:46.871Z,22.08
2019-02-16T01:11:49.950Z,22.08
2019-02-16T01:12:51.510Z,22.08
2019-02-16T01:13:52.862Z,22.08
2019-02-16T01:14:54.377Z,22.08
2019-02-16T01:15:55.876Z,22.09
2019-02-16T01:16:57.296Z,22.09
2019-02-16T01:17:58.685Z,22.08
2019-02-16T01:19:02.599Z,22.08
2019-02-16T01:20:07.266Z,22.07
2019-02-16T01:21:08.832Z,22.09
2019-02-16T01:22:11.147Z,22.08
2019-02-16T01:23:12.682Z,22.08
2019-02-16T01:24:14.009Z,22.09
2019-02-16T01:25:15.464Z,22.08
2019-02-16T01:26:17.168Z,22.09
2019-02-16T01:27:20.771Z,22.09
2019-02-16T01:28:22.103Z,22.09
2019-02-16T01:29:23.491Z,22.07
2019-02-16T01:30:24.949Z,22.07
2019-02-16T01:31:26.556Z,22.08
2019-02-16T01:32:27.940Z,22.07
2019-02-16T01:33:29.375Z,22.08
2019-02-16T01:34:30.837Z,22.08
2019-02-16T01:35:32.216Z,22.08
2019-02-16T01:36:33.691Z,22.08
2019-02-16T01:37:35.176Z,22.08
2019-02-16T01:38:36.621Z,22.08
2019-02-16T01:39:37.956Z,22.08
2019-02-16T01:40:39.326Z,22.08
2019-02-16T01:41:40.809Z,22.08
2019-02-16T01:42:43.173Z,22.09
2019-02-16T01:43:44.533Z,22.08
2019-02-16T01:44:46.107Z,22.08
2019-02-16T01:45:47.427Z,22.07
2019-02-16T01:46:48.866Z,22.07
2019-02-16T01:47:50.501Z,22.07
2019-02-16T01:48:52.138Z,22.07
2019-02-16T01:49:53.652Z,22.07
2019-02-16T01:50:55.083Z,22.06
2019-02-16T01:51:56.349Z,22.05
2019-02-16T01:52:57.764Z,22.05
2019-02-16T01:53:59.220Z,22.05
2019-02-16T01:55:00.505Z,22.04
2019-02-16T01:56:04.272Z,22.05
2019-02-16T01:57:05.790Z,22.05
2019-02-16T01:58:07.147Z,22.05
2019-02-16T01:59:08.629Z,22.05
2019-02-16T02:00:10.362Z,22.03
2019-02-16T02:01:11.757Z,22.04
2019-02-16T02:02:13.408Z,22.04
2019-02-16T02:03:14.779Z,22.04
2019-02-16T02:04:16.247Z,22.05
2019-02-16T02:05:17.984Z,22.04
2019-02-16T02:06:19.444Z,22.04
2019-02-16T02:07:20.784Z,22.04
2019-02-16T02:08:22.201Z,22.05
2019-02-16T02:09:24.143Z,22.03
2019-02-16T02:10:25.644Z,22.04
2019-02-16T02:11:27.178Z,22.03
2019-02-16T02:12:28.592Z,22.03
2019-02-16T02:13:30.260Z,22.04
2019-02-16T02:14:31.633Z,22.03
2019-02-16T02:15:33.059Z,22.04
2019-02-16T02:16:34.677Z,22.04
2019-02-16T02:17:36.076Z,22.04
2019-02-16T02:18:37.553Z,22.04
2019-02-16T02:19:39.128Z,22.03
2019-02-16T02:20:40.500Z,22.04
2019-02-16T02:21:42.110Z,22.04
2019-02-16T02:22:43.561Z,22.03
2019-02-16T02:23:45.028Z,22.03
2019-02-16T02:24:46.525Z,22.03
2019-02-16T02:25:48.173Z,22.03
2019-02-16T02:26:49.739Z,22.02
2019-02-16T02:27:51.013Z,22.02
2019-02-16T02:28:52.669Z,22.02
2019-02-16T02:29:54.085Z,22.02
2019-02-16T02:30:55.419Z,22.02
2019-02-16T02:31:56.956Z,22.02
2019-02-16T02:32:58.348Z,22.02
2019-02-16T02:33:59.731Z,22.02
2019-02-16T02:35:01.359Z,22.01
2019-02-16T02:36:02.788Z,22.02
2019-02-16T02:37:04.285Z,22.02
2019-02-16T02:38:06.045Z,22.02
2019-02-16T02:39:07.447Z,22.02
2019-02-16T02:40:09.981Z,22.01
2019-02-16T02:41:12.549Z,22.01
2019-02-16T02:42:13.921Z,22.02
2019-02-16T02:43:15.211Z,22.02
2019-02-16T02:44:16.576Z,22.02
2019-02-16T02:45:18.104Z,22.01
2019-02-16T02:46:19.620Z,22.02
2019-02-16T02:47:21.396Z,22.02
2019-02-16T02:48:22.804Z,22.02
2019-02-16T02:49:24.334Z,22.02
2019-02-16T02:50:25.717Z,22.02
2019-02-16T02:51:27.103Z,22.02
2019-02-16T02:52:28.675Z,22.02
2019-02-16T02:53:31.520Z,22.02
2019-02-16T02:54:33.515Z,22.02
2019-02-16T02:55:34.890Z,22.01
2019-02-16T02:56:36.278Z,22.02
2019-02-16T02:57:37.822Z,22.01
2019-02-16T02:58:39.397Z,22.02
2019-02-16T02:59:41.034Z,22.02
2019-02-16T03:00:42.578Z,22.02
2019-02-16T03:01:44.118Z,22.01
2019-02-16T03:02:45.667Z,22.01
2019-02-16T03:03:47.227Z,22.01
2019-02-16T03:04:48.578Z,22.00
2019-02-16T03:05:50.064Z,22.00
2019-02-16T03:06:51.403Z,22.00
2019-02-16T03:07:52.801Z,22.00
2019-02-16T03:08:54.410Z,21.99
2019-02-16T03:09:55.683Z,21.99
2019-02-16T03:10:57.117Z,22.00
2019-02-16T03:11:58.638Z,21.99
2019-02-16T03:13:00.039Z,21.99
2019-02-16T03:14:01.507Z,22.00
2019-02-16T03:15:04.080Z,21.98
2019-02-16T03:16:05.455Z,21.98
2019-02-16T03:17:06.915Z,21.97
2019-02-16T03:18:08.174Z,21.97
2019-02-16T03:19:09.647Z,21.99
2019-02-16T03:20:11.135Z,21.97
2019-02-16T03:21:12.611Z,21.97
2019-02-16T03:22:14.049Z,21.97
2019-02-16T03:23:18.309Z,21.97
2019-02-16T03:24:19.667Z,21.96
2019-02-16T03:25:21.233Z,21.96
2019-02-16T03:26:41.772Z,21.96
2019-02-16T03:28:07.809Z,21.96
2019-02-16T03:29:19.267Z,21.95
2019-02-16T03:30:36.670Z,21.96
2019-02-16T03:32:01.678Z,21.96
2019-02-16T03:33:21.598Z,21.93
2019-02-16T03:34:42.443Z,21.91
2019-02-16T03:36:09.558Z,21.91
2019-02-16T03:37:50.069Z,21.88
2019-02-16T03:38:58.396Z,21.88
2019-02-16T03:39:59.729Z,21.88
2019-02-16T03:41:01.375Z,21.86
2019-02-16T03:42:02.900Z,21.87
2019-02-16T03:43:04.178Z,21.87
2019-02-16T03:44:05.706Z,21.87
2019-02-16T03:45:07.132Z,21.87
2019-02-16T03:46:08.501Z,21.87
2019-02-16T03:47:10.288Z,21.87
2019-02-16T03:48:11.684Z,21.88
2019-02-16T03:49:13.025Z,21.89
2019-02-16T03:50:14.670Z,21.89
2019-02-16T03:51:16.373Z,21.89
2019-02-16T03:52:19.202Z,21.91
2019-02-16T03:53:20.770Z,21.92
2019-02-16T03:54:22.169Z,21.92
2019-02-16T03:55:23.614Z,21.92
2019-02-16T03:56:25.198Z,21.91
2019-02-16T03:57:26.644Z,21.93
2019-02-16T03:58:28.132Z,21.93
2019-02-16T03:59:29.548Z,21.93
2019-02-16T04:00:30.926Z,21.93
2019-02-16T04:01:32.408Z,21.92
2019-02-16T04:02:33.842Z,21.92
2019-02-16T04:03:35.278Z,21.94
2019-02-16T04:04:36.552Z,21.93
2019-02-16T04:05:38.056Z,21.94
2019-02-16T04:06:39.542Z,21.94
2019-02-16T04:07:43.341Z,21.94
2019-02-16T04:08:46.853Z,21.94
2019-02-16T04:09:48.213Z,21.94
2019-02-16T04:10:49.511Z,21.95
2019-02-16T04:11:50.961Z,21.96
2019-02-16T04:12:52.563Z,21.95
2019-02-16T04:13:54.106Z,21.95
2019-02-16T04:14:55.557Z,21.95
2019-02-16T04:15:57.005Z,21.96
2019-02-16T04:16:58.386Z,21.95
2019-02-16T04:18:00.024Z,21.95
2019-02-16T04:19:01.654Z,21.96
2019-02-16T04:20:05.001Z,21.96
2019-02-16T04:21:06.466Z,21.96
2019-02-16T04:22:07.845Z,21.96
2019-02-16T04:23:09.276Z,21.96
2019-02-16T04:24:10.810Z,21.96
2019-02-16T04:25:12.262Z,21.96
2019-02-16T04:26:13.790Z,21.95
2019-02-16T04:27:15.025Z,21.95
2019-02-16T04:28:16.504Z,21.95
2019-02-16T04:29:17.969Z,21.95
2019-02-16T04:30:19.518Z,21.95
2019-02-16T04:31:20.868Z,21.95
2019-02-16T04:32:22.354Z,21.94
2019-02-16T04:33:23.788Z,21.94
2019-02-16T04:34:25.484Z,21.94
2019-02-16T04:35:26.855Z,21.94
2019-02-16T04:36:28.404Z,21.94
2019-02-16T04:37:29.775Z,21.93
2019-02-16T04:38:31.161Z,21.93
2019-02-16T04:39:32.526Z,21.95
2019-02-16T04:40:33.836Z,21.94
2019-02-16T04:41:35.275Z,21.94
2019-02-16T04:42:38.906Z,21.94
2019-02-16T04:43:40.308Z,21.94
2019-02-16T04:44:43.112Z,21.94
2019-02-16T04:45:44.575Z,21.93
2019-02-16T04:46:46.618Z,21.94
2019-02-16T04:47:48.474Z,21.92
2019-02-16T04:48:49.948Z,21.93
2019-02-16T04:49:51.459Z,21.92
2019-02-16T04:50:53.012Z,21.93
2019-02-16T04:51:54.384Z,21.93
2019-02-16T04:52:56.385Z,21.92
2019-02-16T04:53:57.998Z,21.92
2019-02-16T04:54:59.508Z,21.92
2019-02-16T04:56:03.209Z,21.93
2019-02-16T04:57:04.739Z,21.93
2019-02-16T04:58:06.134Z,21.92
2019-02-16T04:59:10.329Z,21.94
2019-02-16T05:00:11.833Z,21.93
2019-02-16T05:01:13.388Z,21.93
2019-02-16T05:02:15.063Z,21.93
2019-02-16T05:03:18.164Z,21.93
2019-02-16T05:04:19.589Z,21.92
2019-02-16T05:05:21.135Z,21.94
2019-02-16T05:06:24.895Z,21.93
2019-02-16T05:07:26.289Z,21.92
2019-02-16T05:08:27.861Z,21.92
2019-02-16T05:09:29.357Z,21.92
2019-02-16T05:10:31.109Z,21.92
2019-02-16T05:11:32.463Z,21.93
2019-02-16T05:12:33.948Z,21.93
2019-02-16T05:13:35.548Z,21.94
2019-02-16T05:14:36.995Z,21.94
2019-02-16T05:15:38.549Z,21.95
2019-02-16T05:16:40.082Z,21.95
2019-02-16T05:17:41.457Z,21.94
2019-02-16T05:18:42.881Z,21.95
2019-02-16T05:19:44.379Z,21.93
2019-02-16T05:20:45.853Z,21.93
2019-02-16T05:21:47.217Z,21.93
2019-02-16T05:22:48.702Z,21.93
2019-02-16T05:23:50.110Z,21.93
2019-02-16T05:24:51.570Z,21.94
2019-02-16T05:25:53.055Z,21.93
2019-02-16T05:26:54.387Z,21.93
2019-02-16T05:27:55.918Z,21.92
2019-02-16T05:28:57.477Z,21.92
2019-02-16T05:29:58.793Z,21.92
2019-02-16T05:31:00.244Z,21.87
2019-02-16T05:32:01.635Z,21.91
2019-02-16T05:33:03.309Z,21.91
2019-02-16T05:34:04.696Z,21.90
2019-02-16T05:35:06.282Z,21.90
2019-02-16T05:36:08.143Z,21.89
2019-02-16T05:37:09.548Z,21.89
2019-02-16T05:38:11.280Z,21.89
2019-02-16T05:39:12.887Z,21.88
2019-02-16T05:40:14.157Z,21.88
2019-02-16T05:41:16.752Z,21.87
2019-02-16T05:42:18.261Z,21.86
2019-02-16T05:43:19.703Z,21.86
2019-02-16T05:44:21.146Z,21.86
2019-02-16T05:45:22.406Z,21.85
2019-02-16T05:46:24.681Z,21.84
2019-02-16T05:47:26.432Z,21.84
2019-02-16T05:48:27.897Z,21.84
2019-02-16T05:49:29.651Z,21.83
2019-02-16T05:50:31.087Z,21.83
2019-02-16T05:51:32.645Z,21.82
2019-02-16T05:52:34.522Z,21.82
2019-02-16T05:53:35.897Z,21.81
2019-02-16T05:54:37.434Z,21.80
2019-02-16T05:55:38.848Z,21.79
2019-02-16T05:56:40.409Z,21.79
2019-02-16T05:57:41.808Z,21.79
2019-02-16T05:58:43.369Z,21.79
2019-02-16T05:59:45.007Z,21.79
2019-02-16T06:00:46.256Z,21.78
2019-02-16T06:01:53.742Z,21.79
2019-02-16T06:02:50.885Z,21.78
2019-02-16T06:03:53.923Z,21.80
2019-02-16T06:04:55.724Z,21.80
2019-02-16T06:05:57.137Z,21.81
2019-02-16T06:06:58.592Z,21.81
2019-02-16T06:08:00.063Z,21.82
2019-02-16T06:09:01.801Z,21.82
2019-02-16T06:10:06.711Z,21.80
2019-02-16T06:11:10.344Z,21.80
2019-02-16T06:12:11.700Z,21.80
2019-02-16T06:13:13.094Z,21.81
2019-02-16T06:14:14.493Z,21.80
2019-02-16T06:15:15.747Z,21.81
2019-02-16T06:16:17.357Z,21.79
2019-02-16T06:17:18.839Z,21.81
2019-02-16T06:18:20.144Z,21.81
2019-02-16T06:19:21.730Z,21.81
2019-02-16T06:20:23.213Z,21.81
2019-02-16T06:21:24.638Z,21.82
2019-02-16T06:22:25.972Z,21.82
2019-02-16T06:23:27.457Z,21.82
2019-02-16T06:24:28.976Z,21.83
2019-02-16T06:25:30.356Z,21.84
2019-02-16T06:26:31.820Z,21.85
2019-02-16T06:27:33.261Z,21.85
2019-02-16T06:28:35.674Z,21.84
2019-02-16T06:29:37.260Z,21.85
2019-02-16T06:30:38.526Z,21.86
2019-02-16T06:31:39.971Z,21.86
2019-02-16T06:32:41.456Z,21.86
2019-02-16T06:33:42.960Z,21.87
2019-02-16T06:34:44.333Z,21.87
2019-02-16T06:35:50.668Z,21.87
2019-02-16T06:36:52.054Z,21.87
2019-02-16T06:37:53.519Z,21.87
2019-02-16T06:38:54.996Z,21.87
2019-02-16T06:39:56.500Z,21.87
2019-02-16T06:40:57.868Z,21.87
2019-02-16T06:41:59.366Z,21.88
2019-02-16T06:43:00.636Z,21.88
2019-02-16T06:44:02.042Z,21.90
2019-02-16T06:45:04.415Z,21.90
2019-02-16T06:46:05.673Z,21.91
2019-02-16T06:47:06.996Z,21.91
2019-02-16T06:48:08.455Z,21.91
2019-02-16T06:49:10.129Z,21.91
2019-02-16T06:50:11.617Z,21.93
2019-02-16T06:51:14.900Z,21.94
2019-02-16T06:52:16.112Z,21.94
2019-02-16T06:53:17.618Z,21.94
2019-02-16T06:54:19.211Z,21.95
2019-02-16T06:55:21.170Z,21.95
2019-02-16T06:56:24.545Z,21.94
2019-02-16T06:57:27.763Z,21.96
2019-02-16T06:58:29.089Z,21.96
2019-02-16T06:59:30.775Z,21.97
2019-02-16T07:00:32.088Z,21.97
2019-02-16T07:01:33.373Z,21.96
2019-02-16T07:02:34.827Z,21.97
2019-02-16T07:03:36.078Z,21.98
2019-02-16T07:04:38.643Z,21.99
2019-02-16T07:05:39.977Z,21.99
2019-02-16T07:06:41.562Z,22.00
2019-02-16T07:07:43.228Z,22.02
2019-02-16T07:08:44.568Z,22.02
2019-02-16T07:09:46.045Z,22.03
2019-02-16T07:10:47.529Z,22.05
2019-02-16T07:11:49.068Z,22.06
2019-02-16T07:12:50.589Z,22.07
2019-02-16T07:13:52.485Z,22.07
2019-02-16T07:14:54.021Z,22.10
2019-02-16T07:16:13.896Z,22.11
2019-02-16T07:17:20.177Z,22.12
2019-02-16T07:18:23.412Z,22.12
2019-02-16T07:19:28.238Z,22.11
2019-02-16T07:20:29.708Z,22.11
2019-02-16T07:21:31.303Z,22.11
2019-02-16T07:22:32.634Z,22.11
2019-02-16T07:23:34.255Z,22.11
2019-02-16T07:24:35.628Z,22.10
2019-02-16T07:25:37.463Z,22.10
2019-02-16T07:26:38.864Z,22.12
2019-02-16T07:27:40.287Z,22.12
2019-02-16T07:28:41.920Z,22.13
2019-02-16T07:29:43.298Z,22.12
2019-02-16T07:30:44.763Z,22.12
2019-02-16T07:31:46.303Z,22.11
2019-02-16T07:32:47.824Z,22.11
2019-02-16T07:33:49.222Z,22.07
2019-02-16T07:34:50.708Z,22.11
2019-02-16T07:35:52.388Z,22.10
2019-02-16T07:36:53.644Z,22.10
2019-02-16T07:37:55.314Z,22.10
2019-02-16T07:38:56.754Z,22.10
2019-02-16T07:39:58.087Z,22.10
2019-02-16T07:40:59.549Z,22.10
2019-02-16T07:42:01.222Z,22.12
2019-02-16T07:43:02.594Z,22.12
2019-02-16T07:44:05.840Z,22.15
2019-02-16T07:45:09.331Z,22.16
2019-02-16T07:46:12.764Z,22.16
2019-02-16T07:47:25.083Z,22.19
2019-02-16T07:48:28.390Z,22.19
2019-02-16T07:49:31.862Z,22.19
2019-02-16T07:50:38.224Z,22.20
2019-02-16T07:51:41.487Z,22.19
2019-02-16T07:52:47.791Z,22.19
2019-02-16T07:53:51.152Z,22.19
2019-02-16T07:54:54.311Z,22.19
2019-02-16T07:55:57.803Z,22.19
2019-02-16T07:57:01.365Z,22.19
2019-02-16T07:58:07.451Z,22.19
2019-02-16T07:59:19.775Z,22.19
2019-02-16T08:00:28.949Z,22.19
2019-02-16T08:01:51.503Z,22.18
2019-02-16T08:02:54.865Z,22.18
2019-02-16T08:03:58.271Z,22.19
2019-02-16T08:05:04.622Z,22.18
2019-02-16T08:06:10.961Z,22.18
2019-02-16T08:07:17.463Z,22.18
2019-02-16T08:08:21.031Z,22.21
2019-02-16T08:09:27.086Z,22.21
2019-02-16T08:10:36.232Z,22.23
2019-02-16T08:11:54.392Z,22.23
2019-02-16T08:13:04.681Z,22.24
2019-02-16T08:14:26.045Z,22.24
2019-02-16T08:15:35.440Z,22.24
2019-02-16T08:16:38.691Z,22.24
2019-02-16T08:17:44.755Z,22.24
2019-02-16T08:19:00.195Z,22.24
2019-02-16T08:20:20.216Z,22.24
2019-02-16T08:21:40.206Z,22.25
2019-02-16T08:22:43.468Z,22.24
2019-02-16T08:24:05.004Z,22.26
2019-02-16T08:25:25.054Z,22.26
2019-02-16T08:26:44.876Z,22.27
2019-02-16T08:27:57.673Z,22.27
2019-02-16T08:29:06.870Z,22.31
2019-02-16T08:30:10.566Z,22.31
2019-02-16T08:31:22.882Z,22.33
2019-02-16T08:32:26.200Z,22.35
2019-02-16T08:33:35.518Z,22.36
2019-02-16T08:34:38.906Z,22.37
2019-02-16T08:35:42.286Z,22.38
2019-02-16T08:36:48.194Z,22.39
2019-02-16T08:37:51.750Z,22.39
2019-02-16T08:38:55.040Z,22.40
2019-02-16T08:40:15.338Z,22.40
2019-02-16T08:41:35.244Z,22.41
2019-02-16T08:42:41.281Z,22.41
2019-02-16T08:43:47.599Z,22.41
2019-02-16T08:44:53.717Z,22.41
2019-02-16T08:46:03.083Z,22.43
2019-02-16T08:47:09.296Z,22.44
2019-02-16T08:48:13.129Z,22.45
2019-02-16T08:49:32.914Z,22.45
2019-02-16T08:50:48.042Z,22.45
2019-02-16T08:51:54.175Z,22.48
2019-02-16T08:53:00.502Z,22.48
2019-02-16T08:54:12.864Z,22.50
2019-02-16T08:55:28.175Z,22.50
2019-02-16T08:56:48.688Z,22.51
2019-02-16T08:57:54.761Z,22.52
2019-02-16T08:59:07.103Z,22.53
2019-02-16T09:00:13.806Z,22.52
2019-02-16T09:01:33.802Z,22.53
2019-02-16T09:02:42.927Z,22.53
2019-02-16T09:03:46.246Z,22.55
2019-02-16T09:04:55.246Z,22.56
2019-02-16T09:06:07.519Z,22.56
2019-02-16T09:07:17.076Z,22.59
2019-02-16T09:08:23.096Z,22.61
2019-02-16T09:09:26.473Z,22.62
2019-02-16T09:10:29.725Z,22.62
2019-02-16T09:11:35.893Z,22.62
2019-02-16T09:12:42.103Z,22.63
2019-02-16T09:13:45.460Z,22.63
2019-02-16T09:14:51.731Z,22.64
2019-02-16T09:15:56.158Z,22.64
2019-02-16T09:17:05.691Z,22.65
2019-02-16T09:18:24.468Z,22.65
2019-02-16T09:19:32.272Z,22.64
2019-02-16T09:20:41.305Z,22.65
2019-02-16T09:21:59.602Z,22.66
2019-02-16T09:23:05.813Z,22.65
2019-02-16T09:24:09.275Z,22.65
2019-02-16T09:25:18.507Z,22.65
2019-02-16T09:26:27.615Z,22.64
2019-02-16T09:27:33.750Z,22.64
2019-02-16T09:28:42.889Z,22.63
2019-02-16T09:29:51.990Z,22.63
2019-02-16T09:30:55.371Z,22.63
2019-02-16T09:32:15.614Z,22.64
2019-02-16T09:33:35.761Z,22.65
2019-02-16T09:34:49.769Z,22.66
2019-02-16T09:36:02.387Z,22.68
2019-02-16T09:37:05.663Z,22.68
2019-02-16T09:38:14.897Z,22.72
2019-02-16T09:39:27.444Z,22.73
2019-02-16T09:40:42.850Z,22.73
2019-02-16T09:41:55.421Z,22.73
2019-02-16T09:42:58.706Z,22.71
2019-02-16T09:44:03.049Z,22.73
2019-02-16T09:45:23.193Z,22.72
2019-02-16T09:46:26.598Z,22.73
2019-02-16T09:47:46.333Z,22.73
2019-02-16T09:49:04.898Z,22.74
2019-02-16T09:50:08.318Z,22.75
2019-02-16T09:51:20.591Z,22.76
2019-02-16T09:52:32.518Z,22.77
2019-02-16T09:53:35.871Z,22.79
2019-02-16T09:54:42.236Z,22.79
2019-02-16T09:55:45.498Z,22.83
2019-02-16T09:57:05.475Z,22.85
2019-02-16T09:58:08.865Z,22.86
2019-02-16T09:59:12.200Z,22.88
2019-02-16T10:00:18.250Z,22.90
2019-02-16T10:01:38.222Z,22.91
2019-02-16T10:02:41.858Z,22.91
2019-02-16T10:03:45.011Z,22.92
2019-02-16T10:04:54.571Z,22.92
2019-02-16T10:06:09.989Z,22.93
2019-02-16T10:07:13.265Z,22.91
2019-02-16T10:08:25.700Z,22.95
2019-02-16T10:09:45.687Z,22.97
2019-02-16T10:10:57.840Z,22.97
2019-02-16T10:12:01.120Z,22.97
2019-02-16T10:13:10.816Z,22.98
2019-02-16T10:14:14.113Z,22.97
2019-02-16T10:15:20.284Z,22.98
2019-02-16T10:16:26.486Z,22.98
2019-02-16T10:17:29.791Z,22.98
2019-02-16T10:18:36.357Z,22.99
2019-02-16T10:19:44.006Z,23.00
2019-02-16T10:20:50.340Z,23.00
2019-02-16T10:21:59.543Z,23.02
2019-02-16T10:23:19.413Z,23.02
2019-02-16T10:24:40.771Z,23.02
2019-02-16T10:25:59.818Z,23.03
2019-02-16T10:27:21.373Z,23.02
2019-02-16T10:28:41.497Z,23.01
2019-02-16T10:29:49.738Z,23.00
2019-02-16T10:30:53.620Z,22.98
2019-02-16T10:32:05.855Z,22.97
2019-02-16T10:33:09.191Z,22.97
2019-02-16T10:34:12.506Z,22.97
2019-02-16T10:35:15.873Z,22.98
2019-02-16T10:36:25.295Z,23.00
2019-02-16T10:37:39.453Z,23.02
2019-02-16T10:38:42.895Z,23.01
2019-02-16T10:39:52.257Z,23.00
2019-02-16T10:41:12.249Z,22.98
2019-02-16T10:42:24.573Z,22.96
2019-02-16T10:43:30.780Z,22.95
2019-02-16T10:44:39.912Z,22.96
2019-02-16T10:45:58.111Z,22.97
2019-02-16T10:47:19.541Z,22.98
2019-02-16T10:48:23.892Z,22.98
2019-02-16T10:49:29.880Z,22.99
2019-02-16T10:50:33.314Z,23.00
2019-02-16T10:51:45.297Z,23.00
2019-02-16T10:53:03.562Z,23.00
2019-02-16T10:54:06.999Z,23.00
2019-02-16T10:55:26.620Z,22.99
2019-02-16T10:56:30.244Z,23.01
2019-02-16T10:57:36.478Z,23.01
2019-02-16T10:58:42.872Z,23.01
2019-02-16T11:00:02.605Z,23.00
2019-02-16T11:01:18.463Z,22.97
2019-02-16T11:02:24.498Z,22.97
2019-02-16T11:03:43.280Z,22.95
2019-02-16T11:04:49.436Z,22.95
2019-02-16T11:05:52.732Z,22.93
2019-02-16T11:07:03.146Z,22.92
2019-02-16T11:08:12.261Z,22.89
2019-02-16T11:09:25.633Z,22.89
2019-02-16T11:10:40.919Z,22.86
2019-02-16T11:12:01.694Z,22.83
2019-02-16T11:13:07.422Z,22.86
2019-02-16T11:14:13.540Z,22.87
2019-02-16T11:15:19.653Z,22.88
2019-02-16T11:16:26.084Z,22.88
2019-02-16T11:17:32.134Z,22.87
2019-02-16T11:18:51.992Z,22.88
2019-02-16T11:20:11.865Z,22.89
2019-02-16T11:21:17.821Z,22.89
2019-02-16T11:22:27.532Z,22.91
2019-02-16T11:23:33.889Z,22.90
2019-02-16T11:24:46.129Z,22.90
2019-02-16T11:25:52.299Z,22.90
2019-02-16T11:27:13.938Z,22.90
2019-02-16T11:28:17.281Z,22.89
2019-02-16T11:29:26.545Z,22.89
2019-02-16T11:30:38.772Z,22.88
2019-02-16T11:31:47.999Z,22.88
2019-02-16T11:32:54.169Z,22.87
2019-02-16T11:34:00.158Z,22.87
2019-02-16T11:35:03.449Z,22.89
2019-02-16T11:36:06.837Z,22.91
2019-02-16T11:37:16.039Z,22.91
2019-02-16T11:38:19.407Z,22.93
2019-02-16T11:39:22.561Z,22.93
2019-02-16T11:40:28.847Z,22.93
2019-02-16T11:41:35.224Z,22.94
2019-02-16T11:42:38.666Z,22.94
2019-02-16T11:43:57.086Z,22.94
2019-02-16T11:45:16.424Z,22.95
2019-02-16T11:46:19.974Z,22.94
2019-02-16T11:47:23.730Z,22.94
2019-02-16T11:48:42.065Z,22.94
2019-02-16T11:49:45.379Z,22.96
2019-02-16T11:50:54.861Z,22.96
2019-02-16T11:51:58.118Z,22.95
2019-02-16T11:53:17.719Z,22.95
2019-02-16T11:54:21.421Z,22.94
2019-02-16T11:55:33.717Z,22.95
2019-02-16T11:56:49.343Z,22.96
2019-02-16T11:57:55.613Z,22.96
2019-02-16T11:59:04.890Z,22.98
2019-02-16T12:00:10.612Z,22.97
2019-02-16T12:01:14.162Z,22.97
2019-02-16T12:02:17.587Z,22.96
2019-02-16T12:03:27.040Z,22.96
2019-02-16T12:04:33.422Z,22.95
2019-02-16T12:05:39.703Z,22.96
2019-02-16T12:06:43.011Z,22.95
2019-02-16T12:08:01.258Z,22.95
2019-02-16T12:09:06.037Z,22.95
2019-02-16T12:10:10.139Z,22.94
2019-02-16T12:11:13.534Z,22.94
2019-02-16T12:12:19.686Z,22.95
2019-02-16T12:13:32.112Z,22.94
2019-02-16T12:14:38.651Z,22.94
2019-02-16T12:15:54.186Z,22.95
2019-02-16T12:17:14.175Z,22.96
2019-02-16T12:18:23.568Z,22.96
2019-02-16T12:19:26.832Z,22.95
2019-02-16T12:20:42.459Z,22.95
2019-02-16T12:21:51.566Z,22.95
2019-02-16T12:22:57.852Z,22.95
2019-02-16T12:24:01.387Z,22.96
2019-02-16T12:25:08.745Z,22.96
2019-02-16T12:26:15.123Z,22.97
2019-02-16T12:27:23.963Z,22.97
2019-02-16T12:28:44.579Z,22.96
2019-02-16T12:29:47.874Z,22.98
2019-02-16T12:30:56.942Z,22.97
2019-02-16T12:32:00.475Z,22.97
2019-02-16T12:33:12.903Z,22.97
2019-02-16T12:34:16.490Z,22.98
2019-02-16T12:35:23.027Z,22.99
2019-02-16T12:36:29.343Z,22.99
2019-02-16T12:37:49.245Z,23.00
2019-02-16T12:39:04.323Z,23.01
2019-02-16T12:40:06.181Z,23.00
2019-02-16T12:41:15.256Z,23.01
2019-02-16T12:42:27.793Z,23.01
2019-02-16T12:43:40.217Z,23.01
2019-02-16T12:44:49.432Z,23.01
2019-02-16T12:45:52.730Z,23.01
2019-02-16T12:47:08.275Z,23.00
2019-02-16T12:48:28.160Z,23.00
2019-02-16T12:49:43.474Z,23.02
2019-02-16T12:51:03.438Z,23.01
2019-02-16T12:52:23.544Z,23.01
2019-02-16T12:53:29.871Z,23.02
2019-02-16T12:54:33.300Z,23.02
2019-02-16T12:55:45.789Z,23.02
2019-02-16T12:56:52.100Z,23.02
2019-02-16T12:57:55.449Z,23.02
2019-02-16T12:59:08.009Z,23.03
2019-02-16T13:00:19.065Z,23.04
2019-02-16T13:01:22.398Z,23.04
2019-02-16T13:02:42.428Z,23.04
2019-02-16T13:03:51.629Z,23.06
2019-02-16T13:04:57.480Z,23.06
2019-02-16T13:06:16.016Z,23.07
2019-02-16T13:07:19.516Z,23.07
2019-02-16T13:08:25.523Z,23.08
2019-02-16T13:09:31.776Z,23.09
2019-02-16T13:10:51.806Z,23.10
2019-02-16T13:11:55.135Z,23.10
2019-02-16T13:13:01.777Z,23.09
2019-02-16T13:14:05.298Z,23.10
2019-02-16T13:15:08.742Z,23.10
2019-02-16T13:16:12.027Z,23.11
2019-02-16T13:17:24.365Z,23.10
2019-02-16T13:18:27.878Z,23.10
2019-02-16T13:19:40.153Z,23.10
2019-02-16T13:20:49.293Z,23.09
2019-02-16T13:22:01.830Z,23.10
2019-02-16T13:23:05.246Z,23.10
2019-02-16T13:24:08.595Z,23.10
2019-02-16T13:25:24.133Z,23.11
2019-02-16T13:26:26.373Z,23.09
2019-02-16T13:27:38.692Z,23.10
2019-02-16T13:28:58.648Z,23.10
2019-02-16T13:30:10.827Z,23.11
2019-02-16T13:31:23.781Z,23.11
2019-02-16T13:32:27.321Z,23.10
2019-02-16T13:33:30.819Z,23.10
2019-02-16T13:34:43.330Z,23.08
2019-02-16T13:35:49.587Z,23.09
2019-02-16T13:36:55.767Z,23.09
2019-02-16T13:38:05.425Z,23.10
2019-02-16T13:39:08.705Z,23.11
2019-02-16T13:40:27.021Z,23.11
2019-02-16T13:41:30.288Z,23.11
2019-02-16T13:42:36.775Z,23.11
2019-02-16T13:43:40.162Z,23.11
2019-02-16T13:45:00.295Z,23.12
2019-02-16T13:46:03.820Z,23.12
2019-02-16T13:47:10.204Z,23.12
2019-02-16T13:48:13.444Z,23.13
2019-02-16T13:49:16.874Z,23.13
2019-02-16T13:50:23.282Z,23.13
2019-02-16T13:51:29.276Z,23.13
2019-02-16T13:52:32.881Z,23.13
2019-02-16T13:53:52.824Z,23.14
2019-02-16T13:54:56.226Z,23.14
2019-02-16T13:56:02.916Z,23.14
2019-02-16T13:57:07.452Z,23.15
2019-02-16T13:58:27.505Z,23.15
2019-02-16T13:59:39.664Z,23.16